Time;durP1;ratioP1;P1;durP2;ratioP2;P2;SDS_P1;SDS_P2;PMS_P1;PMS_P2;Temp;Humidity;BMP_temperature;BMP_pressure;BME280_temperature;BME280_humidity;BME280_pressure;Samples;Min_cycle;Max_cycle;Signal;HPM_P1;HPM_P2
2022/03/21 00:00:21;;;;;;;53.00;18.47;;;6.20;16.40;;;;;;5004826;28;20456;-60
2022/03/21 00:02:50;;;;;;;59.60;20.57;;;6.20;16.60;;;;;;5007717;28;20458;-61
2022/03/21 00:05:17;;;;;;;56.90;20.30;;;6.10;16.70;;;;;;5008289;28;20468;-61
2022/03/21 00:07:44;;;;;;;56.00;19.70;;;6.10;16.60;;;;;;5005966;28;20526;-65
2022/03/21 00:10:11;;;;;;;53.43;18.00;;;6.10;16.60;;;;;;5006001;28;20944;-62
2022/03/21 00:12:39;;;;;;;51.73;18.60;;;6.10;16.80;;;;;;5006842;28;20460;-62
2022/03/21 00:15:10;;;;;;;53.00;19.40;;;6.00;17.00;;;;;;5006841;28;20476;-62
2022/03/21 00:17:40;;;;;;;52.70;18.70;;;6.00;17.00;;;;;;5008326;28;20487;-61
2022/03/21 00:20:10;;;;;;;54.83;21.90;;;6.00;17.00;;;;;;5004617;28;20470;-62
2022/03/21 00:22:37;;;;;;;55.20;19.77;;;5.90;17.00;;;;;;5006717;28;20460;-62
2022/03/21 00:25:05;;;;;;;53.23;19.60;;;5.90;17.10;;;;;;5006136;28;20800;-63
2022/03/21 00:27:33;;;;;;;56.33;20.47;;;5.80;17.10;;;;;;5005870;28;20513;-62
2022/03/21 00:29:59;;;;;;;52.63;20.43;;;5.80;17.00;;;;;;5007652;28;20464;-63
2022/03/21 00:32:26;;;;;;;53.83;20.47;;;5.80;17.20;;;;;;5002780;28;20479;-64
2022/03/21 00:34:53;;;;;;;50.83;19.70;;;5.70;17.30;;;;;;5006728;28;20483;-62
2022/03/21 00:37:23;;;;;;;50.33;17.50;;;5.70;17.40;;;;;;5001997;28;20468;-62
2022/03/21 00:39:49;;;;;;;53.77;18.33;;;5.70;17.50;;;;;;5007542;28;20619;-62
2022/03/21 00:42:16;;;;;;;54.90;19.73;;;5.70;17.50;;;;;;5006787;28;20463;-62
2022/03/21 00:44:43;;;;;;;54.57;17.70;;;5.60;17.50;;;;;;5008248;28;20462;-63
2022/03/21 00:47:10;;;;;;;52.80;19.40;;;5.60;17.60;;;;;;5007672;28;20464;-62
2022/03/21 00:49:37;;;;;;;47.70;17.20;;;5.60;17.70;;;;;;5006250;28;20477;-61
2022/03/21 00:52:04;;;;;;;52.13;17.83;;;5.60;17.60;;;;;;5003667;28;20464;-61
2022/03/21 00:54:32;;;;;;;50.90;17.17;;;5.50;17.60;;;;;;5006156;28;20479;-62
2022/03/21 00:56:59;;;;;;;55.50;16.80;;;5.50;17.60;;;;;;5006427;28;20877;-65
2022/03/21 00:59:25;;;;;;;52.60;17.67;;;5.50;17.60;;;;;;5006693;28;20490;-61
2022/03/21 01:01:52;;;;;;;55.30;19.23;;;5.50;17.60;;;;;;5004420;28;20472;-62
2022/03/21 01:04:19;;;;;;;59.10;20.10;;;5.50;17.60;;;;;;5004542;28;20470;-62
2022/03/21 01:06:46;;;;;;;53.57;18.27;;;5.50;17.80;;;;;;5005723;28;20463;-61
2022/03/21 01:09:16;;;;;;;53.63;17.53;;;5.40;17.80;;;;;;5007732;28;20491;-62
2022/03/21 01:11:44;;;;;;;49.67;16.23;;;5.40;18.00;;;;;;5006947;28;20460;-62
2022/03/21 01:14:12;;;;;;;47.93;17.13;;;5.30;18.00;;;;;;5005780;28;20491;-60
2022/03/21 01:16:39;;;;;;;51.10;17.00;;;5.30;18.00;;;;;;5007068;28;20466;-61
2022/03/21 01:19:06;;;;;;;54.20;17.40;;;5.20;18.00;;;;;;5006274;28;20498;-63
2022/03/21 01:21:33;;;;;;;52.57;16.27;;;5.20;18.00;;;;;;5006369;28;20456;-62
2022/03/21 01:24:00;;;;;;;51.43;17.70;;;5.20;18.00;;;;;;5004372;28;20462;-63
2022/03/21 01:26:27;;;;;;;49.40;16.23;;;5.20;18.00;;;;;;5005397;28;20464;-62
2022/03/21 01:28:56;;;;;;;50.57;17.60;;;5.20;18.00;;;;;;5007180;28;21061;-61
2022/03/21 01:31:23;;;;;;;48.17;16.30;;;5.10;17.80;;;;;;5005492;28;20475;-61
2022/03/21 01:33:50;;;;;;;52.63;17.00;;;5.10;17.80;;;;;;5003833;28;20494;-60
2022/03/21 01:36:16;;;;;;;49.43;15.77;;;5.10;17.90;;;;;;5006849;28;20463;-62
2022/03/21 01:38:43;;;;;;;49.20;17.63;;;5.10;17.90;;;;;;5006605;28;20475;-61
2022/03/21 01:41:10;;;;;;;47.80;15.37;;;5.10;18.40;;;;;;5005311;28;20467;-61
2022/03/21 01:43:56;;;;;;;52.03;18.27;;;5.00;17.90;;;;;;4999426;28;20467;-62
2022/03/21 01:46:23;;;;;;;50.17;16.73;;;5.00;18.10;;;;;;5006299;28;20924;-62
2022/03/21 01:48:50;;;;;;;53.60;19.53;;;5.00;18.00;;;;;;5003153;28;20499;-61
2022/03/21 01:51:17;;;;;;;51.20;18.10;;;5.00;18.00;;;;;;5007330;28;20468;-62
2022/03/21 01:56:28;;;;;;;51.70;17.77;;;4.90;18.30;;;;;;5003360;28;20467;-62
2022/03/21 01:58:56;;;;;;;55.83;17.93;;;4.90;18.30;;;;;;5005393;28;21024;-61
2022/03/21 02:01:23;;;;;;;52.77;18.17;;;4.80;18.30;;;;;;5004732;28;20484;-62
2022/03/21 02:03:51;;;;;;;53.70;17.80;;;4.80;18.40;;;;;;5004993;28;20472;-65
2022/03/21 02:06:18;;;;;;;51.90;17.57;;;4.80;18.50;;;;;;5005864;28;20502;-62
2022/03/21 02:08:46;;;;;;;51.70;19.30;;;4.80;18.60;;;;;;5004536;28;20476;-62
2022/03/21 02:11:15;;;;;;;49.23;17.27;;;4.70;18.70;;;;;;5006409;28;20926;-61
2022/03/21 02:13:42;;;;;;;50.10;17.80;;;4.70;18.80;;;;;;5002463;28;20468;-62
2022/03/21 02:16:10;;;;;;;52.90;17.50;;;4.70;18.80;;;;;;5006064;28;21017;-61
2022/03/21 02:18:41;;;;;;;51.73;18.23;;;4.60;18.80;;;;;;5003002;28;20483;-62
2022/03/21 02:21:15;;;;;;;55.40;17.30;;;4.60;18.90;;;;;;5003729;28;20539;-63
2022/03/21 02:23:46;;;;;;;53.67;19.30;;;4.50;18.80;;;;;;5002320;28;20845;-62
2022/03/21 02:26:15;;;;;;;50.03;16.87;;;4.50;19.00;;;;;;5005628;28;20851;-62
2022/03/21 02:28:43;;;;;;;53.13;17.73;;;4.40;19.20;;;;;;5004279;28;20483;-62
2022/03/21 02:31:11;;;;;;;52.23;18.33;;;4.40;19.20;;;;;;5005455;28;20499;-62
2022/03/21 02:33:40;;;;;;;50.67;16.57;;;4.30;19.30;;;;;;5004292;28;20494;-62
2022/03/21 02:36:08;;;;;;;48.90;15.43;;;4.30;19.50;;;;;;5005394;28;20487;-61
2022/03/21 02:38:36;;;;;;;55.03;18.23;;;4.20;19.40;;;;;;5006415;28;20483;-62
2022/03/21 02:41:03;;;;;;;51.83;16.37;;;4.30;19.50;;;;;;5005001;28;20487;-62
2022/03/21 02:43:31;;;;;;;50.67;15.80;;;4.20;19.50;;;;;;5007340;28;20480;-61
2022/03/21 02:46:05;;;;;;;54.50;19.80;;;4.20;19.50;;;;;;5006081;28;20467;-61
2022/03/21 02:48:32;;;;;;;50.00;15.87;;;4.20;19.60;;;;;;5004942;28;20506;-61
2022/03/21 02:51:02;;;;;;;58.80;19.60;;;4.20;19.40;;;;;;5002781;28;21013;-61
2022/03/21 02:53:32;;;;;;;52.20;20.60;;;4.20;19.50;;;;;;4999013;28;20468;-61
2022/03/21 02:55:59;;;;;;;51.23;18.47;;;4.10;19.70;;;;;;5003552;28;20487;-62
2022/03/21 02:58:26;;;;;;;55.77;19.43;;;4.10;19.90;;;;;;5002593;28;21031;-61
2022/03/21 03:00:54;;;;;;;53.00;18.20;;;4.00;20.00;;;;;;5001984;28;20487;-61
2022/03/21 03:03:21;;;;;;;53.30;17.97;;;3.90;20.00;;;;;;5003037;28;20468;-62
2022/03/21 03:05:47;;;;;;;55.87;18.57;;;3.90;20.10;;;;;;5004167;28;20982;-61
2022/03/21 03:08:14;;;;;;;52.70;18.13;;;3.90;20.20;;;;;;5004608;28;20506;-62
2022/03/21 03:10:41;;;;;;;52.00;17.23;;;3.90;20.10;;;;;;5005941;28;20463;-62
2022/03/21 03:13:09;;;;;;;51.77;17.60;;;3.90;20.10;;;;;;5004593;28;20475;-62
2022/03/21 03:15:36;;;;;;;53.40;17.30;;;3.90;20.20;;;;;;5007006;28;20526;-61
2022/03/21 03:18:04;;;;;;;53.67;19.53;;;3.90;20.20;;;;;;5003260;28;20550;-62
2022/03/21 03:20:31;;;;;;;52.40;18.30;;;3.80;20.30;;;;;;5005379;28;20464;-61
2022/03/21 03:23:00;;;;;;;50.40;17.40;;;3.80;20.20;;;;;;5003323;28;20456;-62
2022/03/21 03:25:27;;;;;;;51.90;17.47;;;3.80;20.30;;;;;;5005727;28;20467;-62
2022/03/21 03:27:54;;;;;;;49.77;16.57;;;3.80;20.20;;;;;;5001340;28;20487;-62
2022/03/21 03:30:21;;;;;;;51.33;17.57;;;3.80;20.20;;;;;;5006969;28;20459;-61
2022/03/21 03:32:50;;;;;;;51.57;16.87;;;3.70;20.30;;;;;;5007419;28;20498;-64
2022/03/21 03:35:19;;;;;;;52.90;17.30;;;3.80;20.20;;;;;;5009756;28;20587;-61
2022/03/21 03:37:46;;;;;;;54.13;18.00;;;3.70;20.20;;;;;;5009100;28;21007;-62
2022/03/21 03:40:14;;;;;;;51.20;18.00;;;3.70;20.10;;;;;;5006938;28;20468;-62
2022/03/21 03:42:40;;;;;;;49.07;15.77;;;3.70;20.30;;;;;;5008612;28;20469;-62
2022/03/21 03:45:08;;;;;;;49.50;16.10;;;3.70;20.10;;;;;;5009197;28;20455;-61
2022/03/21 03:47:35;;;;;;;51.80;15.37;;;3.70;20.20;;;;;;5008345;28;20856;-61
2022/03/21 03:50:02;;;;;;;50.03;15.70;;;3.70;20.10;;;;;;5008456;28;20518;-61
2022/03/21 03:52:30;;;;;;;49.47;15.10;;;3.60;20.20;;;;;;5008228;28;21000;-63
2022/03/21 03:54:57;;;;;;;51.17;14.87;;;3.60;20.20;;;;;;5010088;28;20482;-63
2022/03/21 03:57:23;;;;;;;50.87;16.70;;;3.60;20.30;;;;;;5006014;28;20460;-62
2022/03/21 03:59:50;;;;;;;53.00;15.50;;;3.60;20.40;;;;;;5008126;28;20471;-62
2022/03/21 04:02:17;;;;;;;49.27;14.83;;;3.60;20.30;;;;;;5006033;28;20544;-63
2022/03/21 04:04:44;;;;;;;48.20;14.77;;;3.60;20.30;;;;;;5005319;28;20860;-62
2022/03/21 04:07:11;;;;;;;48.50;16.30;;;3.50;20.40;;;;;;5009919;28;20452;-61
2022/03/21 04:09:39;;;;;;;51.50;16.90;;;3.50;20.40;;;;;;5005651;28;20461;-62
2022/03/21 04:12:06;;;;;;;51.60;16.50;;;3.50;20.40;;;;;;5007363;28;20570;-61
2022/03/21 04:14:33;;;;;;;49.17;15.37;;;3.50;20.50;;;;;;5007651;28;20468;-62
2022/03/21 04:17:00;;;;;;;53.57;16.87;;;3.50;20.50;;;;;;5002943;28;20469;-61
2022/03/21 04:19:27;;;;;;;50.30;16.97;;;3.50;20.70;;;;;;5007385;28;20487;-62
2022/03/21 04:21:53;;;;;;;52.10;17.30;;;3.50;20.60;;;;;;5009212;28;20555;-61
2022/03/21 04:24:20;;;;;;;49.00;16.40;;;3.50;20.60;;;;;;5006272;28;20462;-63
2022/03/21 04:26:48;;;;;;;47.97;15.43;;;3.40;20.40;;;;;;5009908;28;20460;-61
2022/03/21 04:29:15;;;;;;;50.93;16.57;;;3.40;20.40;;;;;;5007277;28;20479;-61
2022/03/21 04:31:42;;;;;;;51.10;16.17;;;3.40;20.60;;;;;;5007784;28;20471;-60
2022/03/21 04:34:08;;;;;;;49.17;17.07;;;3.30;20.80;;;;;;5005020;28;20490;-60
2022/03/21 04:36:35;;;;;;;48.73;15.70;;;3.30;20.90;;;;;;5009053;28;20981;-63
2022/03/21 04:39:03;;;;;;;50.10;15.83;;;3.20;21.10;;;;;;5007823;28;20476;-61
2022/03/21 04:41:30;;;;;;;49.30;16.43;;;3.20;20.90;;;;;;5007356;28;20460;-62
2022/03/21 04:43:58;;;;;;;50.90;15.20;;;3.20;20.80;;;;;;5007999;28;20458;-61
2022/03/21 04:46:25;;;;;;;51.93;16.90;;;3.20;20.80;;;;;;5009419;28;20467;-62
2022/03/21 04:48:52;;;;;;;50.70;15.50;;;3.20;20.80;;;;;;5004962;28;20479;-62
2022/03/21 04:51:19;;;;;;;52.37;15.23;;;3.20;20.80;;;;;;5003546;28;20472;-61
2022/03/21 04:53:46;;;;;;;57.33;17.87;;;3.10;21.10;;;;;;5006339;28;20460;-64
2022/03/21 04:56:13;;;;;;;51.97;16.60;;;3.10;21.20;;;;;;5001842;28;20491;-61
2022/03/21 04:58:39;;;;;;;49.23;15.13;;;3.10;21.40;;;;;;5005744;28;20480;-61
2022/03/21 05:01:08;;;;;;;51.83;16.97;;;3.00;21.20;;;;;;4999766;28;20472;-60
2022/03/21 05:03:35;;;;;;;49.90;16.93;;;3.10;21.30;;;;;;4998697;28;20976;-60
2022/03/21 05:06:02;;;;;;;53.90;16.53;;;3.00;21.20;;;;;;5001607;28;20480;-62
2022/03/21 05:08:29;;;;;;;49.93;14.93;;;3.00;21.20;;;;;;5005480;28;21256;-62
2022/03/21 05:10:57;;;;;;;53.43;16.00;;;3.00;21.40;;;;;;5003326;28;20459;-61
2022/03/21 05:13:24;;;;;;;50.27;16.30;;;2.90;21.50;;;;;;4999496;28;20463;-59
2022/03/21 05:15:50;;;;;;;49.80;14.53;;;2.90;21.50;;;;;;5005728;28;20485;-59
2022/03/21 05:18:19;;;;;;;49.07;14.90;;;2.90;21.50;;;;;;5004405;28;20498;-60
2022/03/21 05:20:45;;;;;;;49.70;15.47;;;2.90;21.40;;;;;;5004342;28;20460;-59
2022/03/21 05:31:27;;;;;;;52.10;15.77;;;2.90;21.30;;;;;;5003248;28;20494;-61
2022/03/21 05:36:39;;;;;;;52.53;16.23;;;3.00;21.00;;;;;;5002050;28;20544;-61
2022/03/21 05:39:05;;;;;;;51.13;15.50;;;3.00;20.90;;;;;;5000010;28;20495;-62
2022/03/21 05:41:32;;;;;;;48.40;15.57;;;3.00;20.70;;;;;;5000229;28;20479;-62
2022/03/21 05:43:59;;;;;;;50.40;15.10;;;3.10;20.70;;;;;;5000005;28;20460;-63
2022/03/21 05:46:26;;;;;;;47.10;14.80;;;3.10;20.60;;;;;;5002372;28;20560;-63
2022/03/21 05:48:59;;;;;;;50.80;15.60;;;3.10;20.70;;;;;;5003720;28;20480;-62
2022/03/21 05:51:28;;;;;;;50.40;15.77;;;3.20;20.70;;;;;;5004758;28;20968;-61
2022/03/21 05:53:56;;;;;;;48.03;15.43;;;3.30;20.50;;;;;;5007139;28;20452;-62
2022/03/21 05:56:25;;;;;;;50.10;16.30;;;3.30;20.30;;;;;;5003171;28;20472;-61
2022/03/21 05:58:52;;;;;;;47.53;15.10;;;3.40;20.10;;;;;;5002998;28;21056;-60
2022/03/21 06:01:22;;;;;;;51.27;15.40;;;3.60;20.00;;;;;;5004828;28;21055;-61
2022/03/21 06:03:49;;;;;;;48.43;15.57;;;3.70;20.40;;;;;;4999865;28;20464;-61
2022/03/21 06:06:17;;;;;;;51.70;16.00;;;3.90;19.60;;;;;;5006263;28;20494;-61
2022/03/21 06:08:44;;;;;;;49.00;14.73;;;4.10;19.50;;;;;;5001785;28;20483;-61
2022/03/21 06:11:12;;;;;;;47.10;14.97;;;4.20;19.20;;;;;;4997209;28;20472;-61
2022/03/21 06:13:43;;;;;;;50.23;15.00;;;4.50;19.00;;;;;;5001299;28;20540;-62
2022/03/21 06:16:11;;;;;;;48.00;15.17;;;4.60;18.70;;;;;;4997681;28;20507;-60
2022/03/21 06:18:39;;;;;;;47.67;14.20;;;4.80;18.40;;;;;;4997456;28;21004;-62
2022/03/21 06:21:08;;;;;;;49.30;16.53;;;5.10;18.20;;;;;;5003184;28;20456;-62
2022/03/21 06:23:37;;;;;;;45.37;13.70;;;5.30;17.80;;;;;;5004469;28;20996;-61
2022/03/21 06:26:03;;;;;;;46.40;15.00;;;5.50;17.40;;;;;;4999344;28;20463;-61
2022/03/21 06:28:31;;;;;;;46.63;15.50;;;5.70;17.00;;;;;;5005691;28;20484;-61
2022/03/21 06:30:58;;;;;;;45.00;14.57;;;5.90;16.60;;;;;;5001352;28;20468;-62
2022/03/21 06:33:27;;;;;;;47.87;16.00;;;6.10;16.30;;;;;;4998652;28;20478;-62
2022/03/21 06:35:54;;;;;;;46.43;15.73;;;6.40;15.80;;;;;;5001351;28;20488;-65
2022/03/21 06:38:21;;;;;;;48.27;17.30;;;6.60;15.90;;;;;;4995499;28;20491;-63
2022/03/21 06:40:49;;;;;;;45.67;14.23;;;6.80;15.00;;;;;;4997576;28;21000;-62
2022/03/21 06:43:17;;;;;;;44.57;14.13;;;7.10;14.40;;;;;;5000656;28;20464;-62
2022/03/21 06:45:43;;;;;;;48.20;15.80;;;7.30;13.70;;;;;;4999797;28;20487;-62
2022/03/21 06:48:10;;;;;;;45.67;13.57;;;7.60;13.20;;;;;;5000344;28;20490;-60
2022/03/21 06:50:37;;;;;;;46.13;14.90;;;7.80;12.70;;;;;;5002177;28;20464;-62
2022/03/21 06:53:04;;;;;;;50.53;15.33;;;8.10;12.40;;;;;;5000723;28;20467;-62
2022/03/21 06:55:31;;;;;;;46.93;13.87;;;8.40;12.00;;;;;;5005207;28;20537;-61
2022/03/21 06:58:01;;;;;;;43.80;13.80;;;8.50;11.60;;;;;;5005084;28;20484;-61
2022/03/21 07:00:28;;;;;;;42.30;12.67;;;8.80;11.20;;;;;;5000174;28;20484;-62
2022/03/21 07:02:54;;;;;;;46.10;14.50;;;9.10;10.80;;;;;;5003763;28;20475;-62
2022/03/21 07:05:21;;;;;;;44.90;15.23;;;9.50;10.30;;;;;;5007791;28;20471;-61
2022/03/21 07:07:50;;;;;;;44.17;15.50;;;10.10;9.80;;;;;;5007070;28;20502;-62
2022/03/21 07:10:17;;;;;;;44.40;14.50;;;10.80;8.90;;;;;;5007528;28;20461;-61
2022/03/21 07:12:44;;;;;;;43.00;14.97;;;11.50;7.90;;;;;;5001915;28;20462;-61
2022/03/21 07:15:12;;;;;;;44.97;17.83;;;12.30;6.50;;;;;;5007806;28;20459;-60
2022/03/21 07:17:40;;;;;;;43.60;14.37;;;13.10;5.00;;;;;;4998943;28;20577;-63
2022/03/21 07:20:08;;;;;;;42.43;15.23;;;14.00;3.50;;;;;;5006111;28;20467;-63
2022/03/21 07:22:35;;;;;;;42.50;13.87;;;14.80;2.30;;;;;;5010072;28;21014;-63
2022/03/21 07:25:02;;;;;;;41.20;14.23;;;15.10;1.40;;;;;;5005260;28;20472;-62
2022/03/21 07:27:29;;;;;;;41.70;14.93;;;15.50;1.00;;;;;;5000359;28;20456;-63
2022/03/21 07:29:55;;;;;;;42.47;15.17;;;15.50;1.00;;;;;;5004715;28;20471;-65
2022/03/21 07:32:23;;;;;;;45.00;15.07;;;15.80;1.00;;;;;;5005116;28;20495;-65
2022/03/21 07:34:50;;;;;;;43.03;13.80;;;16.40;1.00;;;;;;5006908;28;21148;-64
2022/03/21 07:37:17;;;;;;;49.90;15.60;;;17.30;1.00;;;;;;5009696;28;20487;-63
2022/03/21 07:39:47;;;;;;;56.07;16.73;;;18.30;1.00;;;;;;5010689;28;20460;-64
2022/03/21 07:42:16;;;;;;;48.37;15.50;;;19.40;1.00;;;;;;5006821;28;20471;-64
2022/03/21 07:47:29;;;;;;;44.00;15.13;;;20.70;1.00;;;;;;5002054;28;20522;-67
2022/03/21 07:49:56;;;;;;;41.50;14.07;;;21.40;1.00;;;;;;5008216;28;20456;-66
2022/03/21 07:52:24;;;;;;;41.73;14.97;;;21.60;1.00;;;;;;5000345;28;21002;-65
2022/03/21 07:54:53;;;;;;;43.40;15.30;;;21.40;1.00;;;;;;5004762;28;20567;-64
2022/03/21 07:57:20;;;;;;;41.87;15.20;;;21.10;1.00;;;;;;5006408;28;20487;-65
2022/03/21 07:59:47;;;;;;;42.10;14.47;;;21.10;1.00;;;;;;5008169;28;20464;-63
2022/03/21 08:02:14;;;;;;;43.23;15.47;;;21.20;1.00;;;;;;5006942;28;20484;-64
2022/03/21 08:04:42;;;;;;;43.93;14.60;;;21.30;1.00;;;;;;5005711;28;20467;-63
2022/03/21 08:07:08;;;;;;;41.03;14.70;;;21.00;1.00;;;;;;5006248;28;20456;-64
2022/03/21 08:09:35;;;;;;;44.63;15.50;;;20.90;1.00;;;;;;5006691;28;20490;-61
2022/03/21 08:12:02;;;;;;;40.70;14.03;;;20.50;1.00;;;;;;5006773;28;20479;-62
2022/03/21 08:14:29;;;;;;;41.73;13.33;;;20.00;1.00;;;;;;5007873;28;20456;-65
2022/03/21 08:16:56;;;;;;;39.50;13.70;;;19.60;1.00;;;;;;5006108;28;20487;-61
2022/03/21 08:19:24;;;;;;;41.80;15.33;;;19.20;1.00;;;;;;5002945;28;20488;-63
2022/03/21 08:21:53;;;;;;;41.47;15.40;;;19.00;1.00;;;;;;5004324;28;21340;-64
2022/03/21 08:24:20;;;;;;;40.13;14.40;;;18.90;1.00;;;;;;5001243;28;20550;-64
2022/03/21 08:26:47;;;;;;;44.23;15.00;;;18.80;1.00;;;;;;5001767;28;20488;-63
2022/03/21 08:29:15;;;;;;;42.07;16.03;;;18.50;1.00;;;;;;5004829;28;20500;-66
2022/03/21 08:31:42;;;;;;;40.30;14.30;;;18.30;1.00;;;;;;5004044;28;20472;-64
2022/03/21 08:34:09;;;;;;;41.23;14.50;;;18.40;1.00;;;;;;5001673;28;20472;-64
2022/03/21 08:36:36;;;;;;;41.47;14.63;;;18.50;1.00;;;;;;5004124;28;20483;-64
2022/03/21 08:39:05;;;;;;;41.87;14.70;;;18.60;1.00;;;;;;4999236;28;20527;-64
2022/03/21 08:41:31;;;;;;;41.30;14.30;;;18.60;1.00;;;;;;5004445;28;20494;-65
2022/03/21 08:43:58;;;;;;;40.43;14.13;;;18.40;1.00;;;;;;5003655;28;20988;-65
2022/03/21 08:46:26;;;;;;;41.00;14.57;;;18.40;1.00;;;;;;5005002;28;20456;-64
2022/03/21 08:51:37;;;;;;;40.17;14.03;;;18.60;1.00;;;;;;5007590;28;20455;-62
2022/03/21 08:54:07;;;;;;;40.80;14.27;;;19.70;1.00;;;;;;5006304;28;20518;-65
2022/03/21 08:56:33;;;;;;;43.10;14.53;;;20.70;1.00;;;;;;5006229;28;20491;-64
2022/03/21 08:59:00;;;;;;;40.00;14.20;;;21.10;1.00;;;;;;5003296;28;20490;-65
2022/03/21 09:01:27;;;;;;;37.63;13.07;;;21.30;1.00;;;;;;5006124;28;21021;-63
2022/03/21 09:03:54;;;;;;;39.40;14.00;;;21.20;1.00;;;;;;5003940;28;20464;-63
2022/03/21 09:06:21;;;;;;;39.87;14.03;;;21.50;1.00;;;;;;5004364;28;20455;-63
2022/03/21 09:08:48;;;;;;;38.53;14.80;;;21.90;1.00;;;;;;5003626;28;20487;-64
2022/03/21 09:11:17;;;;;;;38.40;14.47;;;22.40;1.00;;;;;;5000520;28;20464;-61
2022/03/21 09:13:45;;;;;;;37.53;13.10;;;23.00;1.00;;;;;;5000401;28;20463;-62
2022/03/21 09:16:12;;;;;;;38.80;13.73;;;23.70;1.00;;;;;;5007121;28;20464;-62
2022/03/21 09:18:39;;;;;;;38.73;14.57;;;24.50;1.00;;;;;;5002877;28;20491;-62
2022/03/21 09:21:06;;;;;;;37.33;13.53;;;25.40;1.00;;;;;;4999800;28;20463;-61
2022/03/21 09:23:33;;;;;;;37.50;13.00;;;26.30;1.00;;;;;;5004825;28;20467;-61
2022/03/21 09:26:01;;;;;;;37.10;12.97;;;27.00;1.00;;;;;;5000061;28;20517;-62
2022/03/21 09:28:29;;;;;;;36.83;13.07;;;27.20;1.00;;;;;;5004066;28;20549;-62
2022/03/21 09:30:56;;;;;;;39.80;14.67;;;27.10;1.00;;;;;;5004937;28;20476;-62
2022/03/21 09:33:23;;;;;;;35.10;11.57;;;27.10;1.00;;;;;;5001832;28;20481;-62
2022/03/21 09:35:50;;;;;;;37.63;13.23;;;27.30;1.00;;;;;;5006876;28;20562;-62
2022/03/21 09:38:18;;;;;;;38.20;13.43;;;27.70;1.00;;;;;;5003062;28;20591;-63
2022/03/21 09:40:46;;;;;;;34.70;12.80;;;28.40;1.00;;;;;;4995283;28;20469;-62
2022/03/21 09:43:13;;;;;;;36.67;13.23;;;29.20;1.00;;;;;;5001093;28;20476;-62
2022/03/21 09:45:42;;;;;;;36.83;14.93;;;30.10;1.00;;;;;;4998205;28;20981;-62
2022/03/21 09:48:16;;;;;;;34.90;13.17;;;30.60;1.00;;;;;;5004957;28;20488;-62
2022/03/21 09:50:45;;;;;;;38.83;13.23;;;30.90;1.00;;;;;;5000646;28;20553;-62
2022/03/21 09:53:14;;;;;;;36.10;14.37;;;31.10;1.00;;;;;;4998990;28;21083;-61
2022/03/21 09:55:42;;;;;;;34.60;13.47;;;30.70;1.00;;;;;;5001354;28;20464;-62
2022/03/21 09:58:10;;;;;;;36.90;14.00;;;30.20;1.00;;;;;;5006219;28;20498;-62
2022/03/21 10:00:37;;;;;;;37.17;15.53;;;29.60;1.00;;;;;;5004434;28;22244;-62
2022/03/21 10:03:06;;;;;;;40.10;14.37;;;29.00;1.00;;;;;;5006954;28;20467;-63
2022/03/21 10:05:38;;;;;;;39.40;15.10;;;28.60;1.00;;;;;;5005534;28;20464;-62
2022/03/21 10:08:12;;;;;;;40.60;15.30;;;28.50;1.00;;;;;;5007000;28;20480;-62
2022/03/21 10:10:40;;;;;;;36.80;14.93;;;28.40;1.00;;;;;;5005782;28;21113;-62
2022/03/21 10:13:09;;;;;;;37.80;14.30;;;28.40;1.00;;;;;;5001644;28;20465;-62
2022/03/21 10:15:37;;;;;;;38.83;15.43;;;28.70;1.00;;;;;;5002999;28;20475;-61
2022/03/21 10:18:09;;;;;;;37.07;15.83;;;29.30;1.00;;;;;;5000276;28;20488;-61
2022/03/21 10:20:38;;;;;;;39.57;15.20;;;30.10;1.00;;;;;;5006985;28;20459;-62
2022/03/21 10:23:19;;;;;;;37.50;13.73;;;31.80;1.00;;;;;;5001604;28;20544;-66
2022/03/21 10:25:46;;;;;;;34.30;14.00;;;33.30;1.00;;;;;;5002094;28;20844;-63
2022/03/21 10:28:33;;;;;;;34.73;13.60;;;34.70;1.00;;;;;;5006472;28;20484;-63
2022/03/21 10:31:00;;;;;;;34.97;15.00;;;35.60;1.00;;;;;;5003768;28;20487;-67
2022/03/21 10:33:29;;;;;;;33.43;13.90;;;36.30;1.00;;;;;;5003701;28;20480;-69
2022/03/21 10:35:56;;;;;;;34.60;14.17;;;37.00;1.00;;;;;;5002752;28;20469;-71
2022/03/21 10:38:34;;;;;;;33.20;14.17;;;37.20;1.00;;;;;;5002208;28;20491;-69
2022/03/21 10:41:06;;;;;;;35.07;14.20;;;36.90;1.00;;;;;;5004604;28;20475;-70
2022/03/21 10:43:34;;;;;;;33.27;15.10;;;36.90;1.00;;;;;;5004316;28;20908;-70
2022/03/21 10:46:01;;;;;;;33.33;14.63;;;37.20;1.00;;;;;;5002653;28;20470;-67
2022/03/21 10:48:31;;;;;;;33.10;14.87;;;36.70;1.00;;;;;;5005060;28;20571;-68
2022/03/21 10:51:00;;;;;;;35.43;14.37;;;36.50;1.00;;;;;;5004452;28;20548;-67
2022/03/21 10:53:29;;;;;;;33.10;14.20;;;36.80;1.00;;;;;;5001960;28;20464;-68
2022/03/21 10:56:05;;;;;;;33.50;14.63;;;37.00;1.00;;;;;;5003038;28;20463;-67
2022/03/21 10:58:34;;;;;;;42.07;15.17;;;36.60;1.00;;;;;;5004848;28;20570;-67
2022/03/21 11:01:14;;;;;;;32.87;13.80;;;36.50;1.00;;;;;;5006109;28;20530;-66
2022/03/21 11:03:43;;;;;;;35.67;14.20;;;36.40;1.00;;;;;;5006832;28;20460;-67
2022/03/21 11:06:10;;;;;;;34.33;14.20;;;36.70;1.00;;;;;;4999318;28;20456;-67
2022/03/21 11:08:37;;;;;;;36.00;15.27;;;37.00;1.00;;;;;;5002869;28;20480;-68
2022/03/21 11:11:05;;;;;;;34.27;14.90;;;37.00;1.00;;;;;;5002448;28;20471;-66
2022/03/21 11:13:32;;;;;;;36.13;15.63;;;36.40;1.00;;;;;;5003792;28;20462;-67
2022/03/21 11:15:59;;;;;;;34.90;14.50;;;35.70;1.00;;;;;;5002975;28;20533;-67
2022/03/21 11:18:27;;;;;;;37.17;15.73;;;35.50;1.00;;;;;;4995694;28;21584;-70
2022/03/21 11:20:57;;;;;;;34.50;14.60;;;35.60;1.00;;;;;;5000820;28;20550;-71
2022/03/21 11:23:25;;;;;;;35.20;16.33;;;35.80;1.00;;;;;;5002918;28;20514;-73
2022/03/21 11:25:57;;;;;;;36.10;16.30;;;35.60;1.00;;;;;;5002002;28;20479;-71
2022/03/21 11:28:48;;;;;;;36.03;15.83;;;35.10;1.00;;;;;;4999002;28;20611;-70
2022/03/21 11:31:23;;;;;;;34.93;15.97;;;34.90;1.00;;;;;;4998637;28;20471;-65
2022/03/21 11:34:03;;;;;;;35.40;14.70;;;34.60;1.00;;;;;;5002457;28;20475;-63
2022/03/21 11:36:32;;;;;;;36.33;16.20;;;34.40;1.00;;;;;;4999433;28;20981;-63
2022/03/21 11:39:01;;;;;;;35.87;15.90;;;34.00;1.00;;;;;;5000824;28;20499;-62
2022/03/21 11:41:30;;;;;;;36.03;16.53;;;33.10;1.00;;;;;;5001369;28;20463;-63
2022/03/21 11:44:14;;;;;;;38.07;15.70;;;31.70;1.00;;;;;;5002674;28;20467;-62
2022/03/21 11:46:44;;;;;;;38.47;15.40;;;30.40;1.00;;;;;;5002109;28;20499;-63
2022/03/21 11:49:43;;;;;;;38.10;17.30;;;29.50;1.00;;;;;;4999333;28;20483;-61
2022/03/21 11:52:12;;;;;;;37.63;15.70;;;28.40;1.00;;;;;;5004099;28;20479;-62
2022/03/21 11:54:39;;;;;;;38.07;15.60;;;27.70;1.00;;;;;;5006575;28;20463;-60
2022/03/21 11:57:08;;;;;;;38.10;15.60;;;27.30;1.00;;;;;;5006553;28;20486;-62
2022/03/21 11:59:54;;;;;;;39.10;16.70;;;26.90;1.00;;;;;;5001959;28;20488;-62
2022/03/21 12:03:00;;;;;;;40.90;16.57;;;26.20;1.00;;;;;;5005145;28;20559;-61
2022/03/21 12:05:51;;;;;;;39.67;15.50;;;25.50;1.00;;;;;;5003431;28;20550;-63
2022/03/21 12:08:53;;;;;;;40.50;15.70;;;24.80;1.00;;;;;;5006421;28;21036;-63
2022/03/21 12:12:03;;;;;;;40.33;14.80;;;24.10;1.00;;;;;;5003262;28;20463;-62
2022/03/21 12:14:41;;;;;;;41.60;16.47;;;23.30;1.00;;;;;;5002948;28;21042;-62
2022/03/21 12:17:41;;;;;;;40.43;15.90;;;22.60;1.00;;;;;;5003151;28;20929;-62
2022/03/21 12:20:16;;;;;;;40.33;16.03;;;22.10;1.00;;;;;;5000604;28;20471;-62
2022/03/21 12:22:47;;;;;;;38.93;14.53;;;21.60;1.00;;;;;;5003216;28;20481;-62
2022/03/21 12:25:21;;;;;;;39.73;14.80;;;21.20;1.00;;;;;;5003400;28;20460;-61
2022/03/21 12:27:52;;;;;;;39.07;13.83;;;20.70;1.00;;;;;;5003628;28;20502;-63
2022/03/21 12:30:49;;;;;;;42.63;16.13;;;20.30;1.00;;;;;;5001618;28;20591;-63
2022/03/21 12:33:29;;;;;;;42.83;15.87;;;20.10;1.00;;;;;;5004118;28;20472;-64
2022/03/21 12:36:05;;;;;;;43.60;15.37;;;19.90;1.00;;;;;;5004299;28;20467;-62
2022/03/21 12:38:37;;;;;;;41.27;15.20;;;19.80;1.00;;;;;;5007845;28;20522;-63
2022/03/21 12:41:08;;;;;;;40.87;15.43;;;19.60;1.00;;;;;;5007281;28;20489;-62
2022/03/21 12:43:55;;;;;;;41.33;15.00;;;19.50;1.00;;;;;;5004217;28;21156;-62
2022/03/21 12:46:22;;;;;;;39.87;14.60;;;19.40;1.00;;;;;;5005758;28;20894;-62
2022/03/21 12:48:54;;;;;;;42.80;15.50;;;19.30;1.00;;;;;;5000645;28;21065;-60
2022/03/21 12:51:31;;;;;;;40.57;14.13;;;19.20;1.00;;;;;;5007889;28;20467;-62
2022/03/21 12:54:03;;;;;;;41.80;14.30;;;19.10;1.00;;;;;;5008539;28;20896;-61
2022/03/21 12:56:31;;;;;;;40.90;15.23;;;18.90;1.00;;;;;;5006524;28;20478;-63
2022/03/21 12:59:01;;;;;;;39.30;14.60;;;18.70;1.00;;;;;;5005198;28;20510;-61
2022/03/21 13:01:29;;;;;;;42.13;14.97;;;18.50;1.00;;;;;;5003496;28;20563;-61
2022/03/21 13:10:32;;;;;;;41.33;15.33;;;18.50;1.00;;;;;;5005795;28;20472;-61